Time;durP1;ratioP1;P1;durP2;ratioP2;P2;SDS_P1;SDS_P2;PMS_P1;PMS_P2;Temp;Humidity;BMP_temperature;BMP_pressure;BME280_temperature;BME280_humidity;BME280_pressure;Samples;Min_cycle;Max_cycle;Signal;HPM_P1;HPM_P2
2023/04/23 00:00:36;;;;;;;;;2.00;2.00;;;;;22.62;32.93;100540.22;5076487;28;45407;-76
2023/04/23 00:03:11;;;;;;;;;2.00;1.00;;;;;22.59;32.79;100534.47;5076606;28;45351;-75
2023/04/23 00:05:38;;;;;;;;;2.00;2.00;;;;;22.69;32.80;100545.56;5076511;28;45266;-75
2023/04/23 00:08:04;;;;;;;;;1.67;1.00;;;;;22.65;32.84;100541.69;5076076;27;47810;-75
2023/04/23 00:10:30;;;;;;;;;2.00;2.00;;;;;22.69;33.38;100542.91;5076276;27;45447;-76
2023/04/23 00:12:56;;;;;;;;;1.00;1.00;;;;;22.69;33.32;100542.91;5076063;28;45733;-75
2023/04/23 00:15:22;;;;;;;;;2.00;2.00;;;;;22.60;32.91;100526.34;5076346;28;45296;-75
2023/04/23 00:17:48;;;;;;;;;0.33;0.33;;;;;22.70;33.33;100538.47;5076041;28;47186;-75
2023/04/23 00:20:15;;;;;;;;;1.00;1.00;;;;;22.70;33.10;100534.00;5076200;28;45284;-75
2023/04/23 00:22:41;;;;;;;;;2.00;1.00;;;;;22.70;33.04;100531.34;5076274;28;45378;-76
2023/04/23 00:25:07;;;;;;;;;1.33;1.33;;;;;22.63;33.33;100525.16;5076223;28;45398;-75
2023/04/23 00:27:32;;;;;;;;;1.33;1.33;;;;;22.71;33.23;100540.97;5075557;27;46914;-76
2023/04/23 00:29:57;;;;;;;;;0.00;0.00;;;;;22.50;33.22;100507.31;5075840;27;47350;-75
2023/04/23 00:32:23;;;;;;;;;1.00;1.00;;;;;22.71;32.79;100521.56;5076012;28;45701;-75
2023/04/23 00:34:48;;;;;;;;;1.75;1.25;;;;;22.70;32.81;100522.56;5076110;28;45359;-76
2023/04/23 00:37:14;;;;;;;;;2.00;2.00;;;;;22.58;33.33;100504.53;5075983;27;45376;-75
2023/04/23 00:39:39;;;;;;;;;1.00;1.00;;;;;22.67;32.81;100515.78;5075781;28;45407;-75
2023/04/23 00:42:11;;;;;;;;;3.00;2.00;;;;;22.67;33.40;100515.78;5075846;28;45344;-75
2023/04/23 00:44:37;;;;;;;;;1.50;1.50;;;;;22.59;32.84;100498.19;5075961;28;45249;-75
2023/04/23 00:47:02;;;;;;;;;1.00;1.00;;;;;22.68;33.16;100512.13;5075686;27;47083;-76
2023/04/23 00:49:28;;;;;;;;;1.00;1.00;;;;;22.69;33.43;100516.41;5075654;28;45404;-75
2023/04/23 00:51:54;;;;;;;;;3.00;1.00;;;;;22.61;33.39;100500.66;5075998;28;45398;-76
2023/04/23 00:54:20;;;;;;;;;1.00;1.00;;;;;22.60;33.06;100502.50;5075995;27;45306;-75
2023/04/23 00:56:47;;;;;;;;;0.00;0.00;;;;;22.65;33.18;100504.56;5075402;28;46292;-75
2023/04/23 00:59:12;;;;;;;;;2.00;1.00;;;;;22.69;33.00;100507.66;5075670;28;45320;-75
2023/04/23 01:01:38;;;;;;;;;1.67;1.67;;;;;22.65;33.22;100507.22;5079149;27;45298;-75
2023/04/23 01:04:03;;;;;;;;;1.25;1.25;;;;;22.58;33.49;100501.88;5079443;28;45458;-75
2023/04/23 01:06:30;;;;;;;;;1.00;1.00;;;;;22.68;33.40;100514.78;5079089;28;45269;-76
2023/04/23 01:08:56;;;;;;;;;1.00;1.00;;;;;22.49;33.16;100485.28;5077861;28;45391;-75
2023/04/23 01:11:21;;;;;;;;;1.00;1.00;;;;;22.56;33.50;100490.59;5078740;28;45390;-75
2023/04/23 01:13:47;;;;;;;;;0.00;0.00;;;;;22.67;33.43;100514.97;5079434;28;45592;-75
2023/04/23 01:16:12;;;;;;;;;0.00;0.00;;;;;22.67;33.48;100509.66;5079013;28;46370;-76
2023/04/23 01:18:39;;;;;;;;;1.25;1.25;;;;;22.50;33.05;100480.78;5079252;28;45383;-75
2023/04/23 01:21:06;;;;;;;;;1.00;1.00;;;;;22.58;33.36;100485.13;5079334;27;45350;-76
2023/04/23 01:23:31;;;;;;;;;1.00;1.00;;;;;22.65;33.03;100501.09;5078832;27;45258;-76
2023/04/23 01:25:57;;;;;;;;;1.33;1.33;;;;;22.56;33.18;100482.66;5078543;27;45422;-75
2023/04/23 01:28:23;;;;;;;;;0.33;0.33;;;;;22.58;33.39;100493.09;5078776;27;45228;-75
2023/04/23 01:30:49;;;;;;;;;0.00;0.00;;;;;22.66;33.59;100502.72;5079119;28;45276;-75
2023/04/23 01:33:16;;;;;;;;;1.00;1.00;;;;;22.65;33.05;100506.38;5079026;28;45270;-75
2023/04/23 01:35:42;;;;;;;;;0.00;0.00;;;;;22.66;33.65;100492.13;5078499;28;45353;-75
2023/04/23 01:38:09;;;;;;;;;1.00;1.00;;;;;22.57;33.50;100470.22;5078674;27;45357;-75
2023/04/23 01:40:36;;;;;;;;;2.00;0.67;;;;;22.66;33.57;100485.00;5078527;27;45360;-75
2023/04/23 01:43:02;;;;;;;;;2.00;2.00;;;;;22.67;32.97;100483.13;5078805;27;45342;-76
2023/04/23 01:45:29;;;;;;;;;1.00;1.00;;;;;22.67;33.03;100467.22;5078450;27;46287;-75
2023/04/23 01:47:55;;;;;;;;;0.75;0.50;;;;;22.57;33.25;100451.66;5078606;27;45379;-75
2023/04/23 01:50:23;;;;;;;;;0.33;0.33;;;;;22.60;32.84;100454.75;5078706;27;45372;-75
2023/04/23 01:52:48;;;;;;;;;0.33;0.33;;;;;22.68;33.19;100468.88;5078567;28;45452;-75
2023/04/23 01:55:14;;;;;;;;;1.33;1.33;;;;;22.62;32.99;100458.03;5078098;27;46304;-76
2023/04/23 01:57:39;;;;;;;;;1.67;1.00;;;;;22.54;33.63;100454.69;5078563;27;46018;-75
2023/04/23 02:00:10;;;;;;;;;1.75;1.75;;;;;22.60;33.14;100467.19;5078478;28;45371;-75
2023/04/23 02:02:38;;;;;;;;;1.00;1.00;;;;;22.63;33.80;100472.94;5078710;27;45535;-76
2023/04/23 02:05:08;;;;;;;;;1.00;1.00;;;;;22.65;33.03;100475.38;5059943;28;46364;-76
2023/04/23 02:07:35;;;;;;;;;2.00;1.00;;;;;22.67;33.28;100473.34;5077987;27;45344;-75
2023/04/23 02:10:01;;;;;;;;;1.00;1.00;;;;;22.60;33.69;100449.47;5078227;27;45403;-75
2023/04/23 02:12:26;;;;;;;;;1.00;1.00;;;;;22.39;33.14;100414.03;5077787;27;45359;-75
2023/04/23 02:14:53;;;;;;;;;1.00;0.33;;;;;22.62;33.14;100450.06;5078165;27;46349;-76
2023/04/23 02:17:20;;;;;;;;;1.00;1.00;;;;;22.62;33.37;100439.47;5078227;28;45329;-75
2023/04/23 02:19:45;;;;;;;;;2.00;1.00;;;;;22.66;33.51;100452.34;5078146;27;45374;-76
2023/04/23 02:22:11;;;;;;;;;2.00;1.00;;;;;22.65;33.75;100448.88;5077827;27;45435;-75
2023/04/23 02:24:37;;;;;;;;;0.50;0.50;;;;;22.65;33.10;100459.47;5077988;28;45932;-75
2023/04/23 02:27:03;;;;;;;;;1.33;1.33;;;;;22.63;33.47;100454.38;5077945;27;45378;-75
2023/04/23 02:29:28;;;;;;;;;0.00;0.00;;;;;22.50;33.18;100419.81;5078012;27;45383;-76
2023/04/23 02:31:54;;;;;;;;;1.00;1.00;;;;;22.61;33.12;100442.31;5078046;28;45229;-76
2023/04/23 02:34:19;;;;;;;;;2.00;1.67;;;;;22.58;33.70;100434.75;5077693;27;46509;-75
2023/04/23 02:36:44;;;;;;;;;1.00;1.00;;;;;22.51;33.36;100430.22;5077554;28;45359;-75
2023/04/23 02:39:10;;;;;;;;;1.00;1.00;;;;;22.60;33.37;100451.28;5077762;28;45424;-75
2023/04/23 02:41:35;;;;;;;;;1.00;1.00;;;;;22.60;33.71;100445.97;5077892;28;45288;-76
2023/04/23 02:44:00;;;;;;;;;2.33;2.00;;;;;22.60;33.42;100448.63;5077768;27;45385;-76
2023/04/23 02:46:26;;;;;;;;;0.00;0.00;;;;;22.40;33.51;100407.72;5077662;27;45305;-75
2023/04/23 02:48:51;;;;;;;;;0.75;0.50;;;;;22.62;33.63;100443.94;5077793;28;45547;-75
2023/04/23 02:51:16;;;;;;;;;1.00;1.00;;;;;22.59;33.75;100434.56;5077249;27;45368;-75
2023/04/23 02:53:42;;;;;;;;;1.67;0.33;;;;;22.61;33.35;100437.03;5077541;27;47063;-75
2023/04/23 02:56:07;;;;;;;;;1.67;0.00;;;;;22.57;33.35;100431.28;5077437;28;45348;-75
2023/04/23 02:58:32;;;;;;;;;2.00;0.67;;;;;22.44;33.24;100400.19;5077716;28;45412;-75
2023/04/23 03:00:58;;;;;;;;;2.00;0.67;;;;;22.54;33.50;100422.88;5077573;27;45374;-76
2023/04/23 03:03:25;;;;;;;;;1.00;1.00;;;;;22.61;33.31;100427.22;5077384;28;45923;-76
2023/04/23 03:05:51;;;;;;;;;1.00;1.00;;;;;22.58;33.92;100429.47;5077101;27;45368;-75
2023/04/23 03:08:16;;;;;;;;;0.75;0.75;;;;;22.61;33.72;100421.91;5077287;27;45358;-76
2023/04/23 03:10:42;;;;;;;;;3.00;1.00;;;;;22.62;33.87;100417.44;5077411;28;45364;-76
2023/04/23 03:13:07;;;;;;;;;0.33;0.33;;;;;22.63;33.26;100409.31;5077318;27;45914;-75
2023/04/23 03:15:32;;;;;;;;;0.00;0.00;;;;;22.64;33.74;100407.44;5077130;27;45269;-75
2023/04/23 03:17:58;;;;;;;;;0.50;0.50;;;;;22.48;33.25;100382.88;5077357;27;45541;-75
2023/04/23 03:20:23;;;;;;;;;1.00;1.00;;;;;22.63;33.28;100408.47;5076895;27;45309;-75
2023/04/23 03:22:49;;;;;;;;;1.00;1.00;;;;;22.60;33.73;100407.03;5076078;28;45452;-75
2023/04/23 03:25:15;;;;;;;;;0.00;0.00;;;;;22.54;33.40;100402.50;5077317;27;45341;-75
2023/04/23 03:27:41;;;;;;;;;0.33;0.33;;;;;22.51;33.61;100386.97;5077190;27;45340;-75
2023/04/23 03:30:07;;;;;;;;;0.00;0.00;;;;;22.58;33.48;100394.97;5077051;28;45489;-75
2023/04/23 03:32:33;;;;;;;;;1.00;1.00;;;;;22.57;33.76;100398.63;5076932;28;46031;-76
2023/04/23 03:34:59;;;;;;;;;0.00;0.00;;;;;22.57;33.29;100388.84;5076545;28;45890;-76
2023/04/23 03:37:26;;;;;;;;;1.00;1.00;;;;;22.66;33.66;100401.97;5077089;28;45430;-76
2023/04/23 03:39:51;;;;;;;;;0.00;0.00;;;;;22.65;33.89;100395.84;5076983;28;45374;-76
2023/04/23 03:42:16;;;;;;;;;1.00;1.00;;;;;22.55;33.49;100376.81;5076548;28;52412;-75
2023/04/23 03:44:42;;;;;;;;;2.00;1.00;;;;;22.55;33.44;100372.34;5076802;28;45468;-75
2023/04/23 03:47:07;;;;;;;;;0.00;0.00;;;;;22.63;33.56;100384.63;5076850;27;45292;-75
2023/04/23 03:49:32;;;;;;;;;1.00;1.00;;;;;22.60;33.79;100374.41;5076553;28;45185;-75
2023/04/23 03:51:58;;;;;;;;;0.00;0.00;;;;;22.47;33.54;100354.75;5076543;28;47371;-75
2023/04/23 03:54:24;;;;;;;;;0.67;0.00;;;;;22.54;33.63;100360.09;5058362;27;45368;-75
2023/04/23 03:56:50;;;;;;;;;0.00;0.00;;;;;22.49;33.88;100339.47;5076915;28;45403;-75
2023/04/23 03:59:15;;;;;;;;;1.33;1.33;;;;;22.61;33.43;100358.28;5075420;27;45285;-75
2023/04/23 04:01:41;;;;;;;;;2.00;0.00;;;;;22.61;33.79;100357.47;5076516;27;45379;-75
2023/04/23 04:04:07;;;;;;;;;1.00;1.00;;;;;22.59;33.85;100349.72;5076247;28;45398;-75
2023/04/23 04:06:32;;;;;;;;;0.67;0.67;;;;;22.61;33.67;100341.56;5076601;28;45422;-75
2023/04/23 04:08:57;;;;;;;;;1.00;1.00;;;;;22.54;33.41;100338.88;5076374;28;45433;-76
2023/04/23 04:11:22;;;;;;;;;1.00;1.00;;;;;22.61;33.58;100342.38;5076297;28;47407;-76
2023/04/23 04:13:48;;;;;;;;;1.00;1.00;;;;;22.43;34.05;100323.53;5076276;28;45360;-75
2023/04/23 04:16:13;;;;;;;;;0.33;0.33;;;;;22.61;34.05;100334.41;5076496;28;45338;-76
2023/04/23 04:18:38;;;;;;;;;1.00;1.00;;;;;22.62;33.91;100332.59;5076089;28;45270;-75
2023/04/23 04:21:04;;;;;;;;;0.67;0.67;;;;;22.61;33.91;100334.41;5075647;27;62264;-75
2023/04/23 04:23:29;;;;;;;;;0.00;0.00;;;;;22.62;33.58;100327.28;5076269;28;45340;-76
2023/04/23 04:25:56;;;;;;;;;0.00;0.00;;;;;22.46;34.03;100292.13;5076395;27;45360;-76
2023/04/23 04:28:24;;;;;;;;;0.50;0.50;;;;;22.55;33.82;100306.06;5076058;27;45456;-75
2023/04/23 04:30:50;;;;;;;;;0.00;0.00;;;;;22.57;33.51;100317.28;5076042;28;46183;-75
2023/04/23 04:33:15;;;;;;;;;0.33;0.33;;;;;22.63;33.95;100320.97;5075506;28;45416;-75
2023/04/23 04:35:41;;;;;;;;;1.00;1.00;;;;;22.55;33.93;100314.00;5076000;28;45344;-75
2023/04/23 04:38:07;;;;;;;;;1.00;1.00;;;;;22.56;33.88;100309.53;5075846;28;45470;-76
2023/04/23 04:40:33;;;;;;;;;0.00;0.00;;;;;22.48;33.80;100295.41;5075858;28;45328;-75
2023/04/23 04:42:59;;;;;;;;;1.00;1.00;;;;;22.52;33.94;100285.22;5076089;28;45475;-75
2023/04/23 04:45:24;;;;;;;;;1.00;1.00;;;;;22.53;33.82;100305.44;5075816;28;45399;-75
2023/04/23 04:47:50;;;;;;;;;2.00;1.00;;;;;22.49;33.62;100301.53;5075622;28;45542;-75
2023/04/23 04:50:17;;;;;;;;;0.67;0.00;;;;;22.59;33.87;100306.47;5075757;27;46002;-75
2023/04/23 04:52:42;;;;;;;;;1.00;1.00;;;;;22.60;33.65;100310.75;5075833;28;45488;-75
2023/04/23 04:55:08;;;;;;;;;1.00;1.00;;;;;22.63;33.62;100311.19;5075706;28;45325;-76
2023/04/23 04:57:33;;;;;;;;;0.00;0.00;;;;;22.37;33.71;100269.47;5075844;28;45487;-75
2023/04/23 05:00:03;;;;;;;;;0.00;0.00;;;;;22.62;33.97;100309.56;5075829;28;46020;-75
2023/04/23 05:02:29;;;;;;;;;0.00;0.00;;;;;22.50;34.02;100290.75;5075376;27;45318;-76
2023/04/23 05:04:54;;;;;;;;;0.00;0.00;;;;;22.56;33.53;100296.28;5075715;28;45445;-76
2023/04/23 05:07:19;;;;;;;;;1.67;0.67;;;;;22.65;33.62;100318.13;5075814;28;45369;-76
2023/04/23 05:09:45;;;;;;;;;0.33;0.33;;;;;22.63;34.04;100313.03;5074164;28;47062;-75
2023/04/23 05:12:11;;;;;;;;;1.33;1.00;;;;;22.42;34.15;100263.56;5075531;27;45442;-75
2023/04/23 05:14:36;;;;;;;;;1.67;1.00;;;;;22.63;34.04;100310.38;5075662;28;45471;-75
2023/04/23 05:17:01;;;;;;;;;1.00;1.00;;;;;22.63;33.50;100305.91;5075218;28;45278;-75
2023/04/23 05:19:27;;;;;;;;;1.00;1.00;;;;;22.63;34.26;100302.41;5075506;28;46273;-75
2023/04/23 05:21:52;;;;;;;;;1.00;0.00;;;;;22.59;33.67;100291.38;5075682;28;45437;-75
2023/04/23 05:24:17;;;;;;;;;0.67;0.67;;;;;22.54;33.55;100285.84;5075435;28;45740;-75
2023/04/23 05:26:43;;;;;;;;;0.67;0.67;;;;;22.41;34.19;100260.09;5075554;27;45277;-75
2023/04/23 05:29:08;;;;;;;;;1.33;0.00;;;;;22.61;33.67;100280.59;5075415;28;46250;-76
2023/04/23 05:31:33;;;;;;;;;1.00;0.33;;;;;22.40;34.08;100251.31;5074980;28;45275;-75
2023/04/23 05:33:59;;;;;;;;;3.00;0.00;;;;;22.60;33.72;100289.56;5057392;28;45545;-75
2023/04/23 05:36:24;;;;;;;;;1.00;1.00;;;;;22.62;33.80;100284.84;5075302;28;45294;-75
2023/04/23 05:38:50;;;;;;;;;1.33;1.33;;;;;22.56;33.94;100269.75;5074954;28;45405;-75
2023/04/23 05:41:15;;;;;;;;;2.00;0.00;;;;;22.61;34.10;100278.72;5075337;27;45469;-76
2023/04/23 05:43:41;;;;;;;;;0.00;0.00;;;;;22.63;34.20;100283.84;5075668;27;45712;-75
2023/04/23 05:46:06;;;;;;;;;0.00;0.00;;;;;22.40;34.01;100248.66;5076052;28;45495;-76
2023/04/23 05:48:32;;;;;;;;;0.67;0.00;;;;;22.48;34.02;100255.63;5078434;27;45880;-75
2023/04/23 05:50:58;;;;;;;;;2.00;0.67;;;;;22.31;33.95;100233.13;5078706;28;45480;-75
2023/04/23 05:53:23;;;;;;;;;2.00;0.00;;;;;22.60;34.16;100285.06;5078595;28;45362;-75
2023/04/23 05:55:48;;;;;;;;;0.00;0.00;;;;;22.44;34.11;100265.00;5078594;27;45490;-75
2023/04/23 05:58:14;;;;;;;;;1.00;0.00;;;;;22.61;33.67;100284.03;5060052;28;51627;-75
2023/04/23 06:00:40;;;;;;;;;0.00;0.00;;;;;22.60;34.24;100290.38;5076913;28;45738;-76
2023/04/23 06:03:06;;;;;;;;;3.00;1.00;;;;;22.56;33.76;100283.81;5078569;27;45472;-75
2023/04/23 06:05:31;;;;;;;;;2.33;1.00;;;;;22.59;34.30;100287.91;5078550;28;45419;-76
2023/04/23 06:07:57;;;;;;;;;0.33;0.00;;;;;22.60;33.62;100289.56;5078268;28;47125;-75
2023/04/23 06:10:22;;;;;;;;;0.00;0.00;;;;;22.58;34.29;100286.28;5078301;28;45329;-75
2023/04/23 06:12:48;;;;;;;;;0.00;0.00;;;;;22.52;33.63;100286.06;5078370;27;45449;-76
2023/04/23 06:15:13;;;;;;;;;2.00;0.00;;;;;22.61;34.35;100289.34;5077984;28;45449;-75
2023/04/23 06:17:38;;;;;;;;;1.00;1.00;;;;;22.58;34.00;100287.09;5078160;27;46545;-76
2023/04/23 06:20:04;;;;;;;;;1.33;0.00;;;;;22.52;34.30;100279.94;5078287;27;45171;-75
2023/04/23 06:22:30;;;;;;;;;1.67;0.00;;;;;22.61;34.29;100286.69;5078220;27;45531;-76
2023/04/23 06:24:56;;;;;;;;;2.00;1.00;;;;;22.58;33.92;100288.94;5078058;28;45365;-75
2023/04/23 06:27:21;;;;;;;;;2.00;1.00;;;;;22.62;34.27;100285.69;5077916;27;45464;-75
2023/04/23 06:29:47;;;;;;;;;0.00;0.00;;;;;22.63;33.86;100276.72;5077542;27;45401;-75
2023/04/23 06:32:12;;;;;;;;;0.00;0.00;;;;;22.63;33.73;100281.22;5078039;28;45301;-75
2023/04/23 06:34:37;;;;;;;;;0.00;0.00;;;;;22.63;33.74;100276.72;5059793;28;45317;-75
2023/04/23 06:37:03;;;;;;;;;1.00;0.00;;;;;22.64;33.74;100272.22;5077775;28;46360;-76
2023/04/23 06:39:28;;;;;;;;;0.00;0.00;;;;;22.55;33.84;100260.16;5077418;28;51297;-75
2023/04/23 06:41:53;;;;;;;;;1.33;0.33;;;;;22.49;34.25;100245.84;5077918;28;45654;-75
2023/04/23 06:44:19;;;;;;;;;0.00;0.00;;;;;22.54;34.37;100258.50;5077414;28;45433;-75
2023/04/23 06:46:45;;;;;;;;;0.33;0.33;;;;;22.63;33.94;100283.84;5077568;27;46492;-75
2023/04/23 06:49:11;;;;;;;;;2.00;0.00;;;;;22.64;34.33;100277.53;5077660;27;45348;-76
2023/04/23 06:51:36;;;;;;;;;0.33;0.33;;;;;22.33;34.18;100223.19;5077774;27;45254;-75
2023/04/23 06:54:01;;;;;;;;;1.00;0.00;;;;;22.63;33.76;100265.31;5077607;28;45325;-75
2023/04/23 06:56:27;;;;;;;;;0.33;0.33;;;;;22.56;33.79;100254.66;5077456;28;46094;-76
2023/04/23 06:58:52;;;;;;;;;1.33;0.00;;;;;22.59;34.45;100264.88;5077188;28;45482;-75
2023/04/23 07:01:18;;;;;;;;;2.00;1.00;;;;;22.55;33.91;100237.13;5077594;27;45313;-76
2023/04/23 07:03:47;;;;;;;;;1.00;1.00;;;;;22.63;34.24;100246.75;5077547;28;45531;-75
2023/04/23 07:06:13;;;;;;;;;2.00;0.33;;;;;22.55;34.35;100241.59;5077298;28;46039;-75
2023/04/23 07:08:39;;;;;;;;;0.00;0.00;;;;;22.61;34.32;100235.53;5077373;27;45811;-75
2023/04/23 07:11:04;;;;;;;;;0.33;0.00;;;;;22.62;34.17;100234.50;5077531;28;45372;-75
2023/04/23 07:13:30;;;;;;;;;0.67;0.33;;;;;22.61;34.49;100225.72;5076923;28;45438;-76
2023/04/23 07:15:55;;;;;;;;;1.00;1.00;;;;;22.52;33.89;100192.44;5077313;28;46131;-75
2023/04/23 07:18:20;;;;;;;;;0.33;0.00;;;;;22.45;33.97;100178.38;5077275;27;45395;-76
2023/04/23 07:20:46;;;;;;;;;0.00;0.00;;;;;22.61;34.39;100196.53;5077405;27;45362;-75
2023/04/23 07:23:11;;;;;;;;;0.00;0.00;;;;;22.57;34.16;100181.25;5077355;27;45293;-76
2023/04/23 07:25:36;;;;;;;;;2.00;0.50;;;;;22.60;34.43;100179.03;5076936;28;46163;-76
2023/04/23 07:28:02;;;;;;;;;0.00;0.00;;;;;22.61;34.34;100179.84;5076725;27;45549;-76
2023/04/23 07:30:28;;;;;;;;;2.00;0.00;;;;;22.55;34.33;100175.31;5077189;28;45363;-76
2023/04/23 07:32:54;;;;;;;;;0.33;0.33;;;;;22.54;34.33;100171.03;5076856;28;45295;-75
2023/04/23 07:35:20;;;;;;;;;1.00;1.00;;;;;22.48;34.16;100152.25;5076893;27;46666;-73
2023/04/23 07:37:45;;;;;;;;;1.00;0.33;;;;;22.55;34.10;100176.16;5076442;27;45424;-75
2023/04/23 07:40:10;;;;;;;;;1.33;0.00;;;;;22.53;34.46;100164.94;5077030;28;45202;-75
2023/04/23 07:42:36;;;;;;;;;0.00;0.00;;;;;22.34;34.26;100129.41;5076744;28;45501;-76
2023/04/23 07:45:01;;;;;;;;;0.00;0.00;;;;;22.56;34.68;100158.41;5076636;27;47972;-75
2023/04/23 07:47:27;;;;;;;;;0.00;0.00;;;;;22.57;34.69;100165.34;5076741;27;45302;-75
2023/04/23 07:49:52;;;;;;;;;0.00;0.00;;;;;22.39;34.55;100134.91;5076469;28;45391;-75
2023/04/23 07:52:17;;;;;;;;;0.00;0.00;;;;;22.50;33.96;100144.13;5076777;27;45321;-75
2023/04/23 07:54:43;;;;;;;;;0.00;0.00;;;;;22.57;34.20;100147.59;5076447;28;45430;-76
2023/04/23 07:57:10;;;;;;;;;0.00;0.00;;;;;22.57;34.09;100141.47;5076377;28;45416;-75
2023/04/23 07:59:37;;;;;;;;;0.00;0.00;;;;;22.55;34.16;100141.69;5076805;28;45367;-76
2023/04/23 08:02:03;;;;;;;;;1.00;1.00;;;;;22.56;34.72;100130.03;5076606;27;45301;-76
2023/04/23 08:04:28;;;;;;;;;2.00;0.33;;;;;22.55;34.35;100109.88;5076296;27;45678;-74
2023/04/23 08:06:53;;;;;;;;;2.33;0.00;;;;;22.47;34.46;100094.97;5076614;27;45340;-75
2023/04/23 08:09:19;;;;;;;;;0.00;0.00;;;;;22.58;34.64;100101.53;5076082;28;45452;-76
2023/04/23 08:11:44;;;;;;;;;0.00;0.00;;;;;22.58;34.50;100121.91;5076132;28;46334;-76
2023/04/23 08:14:10;;;;;;;;;1.00;1.00;;;;;22.57;34.65;100094.56;5076399;28;46523;-75
2023/04/23 08:16:35;;;;;;;;;0.00;0.00;;;;;22.32;34.42;100049.28;5076310;28;45344;-75
2023/04/23 08:19:00;;;;;;;;;1.67;0.00;;;;;22.58;34.18;100080.31;5076589;28;45335;-75
2023/04/23 08:21:27;;;;;;;;;2.00;0.00;;;;;22.57;34.74;100069.91;5076336;28;45396;-76
2023/04/23 08:23:53;;;;;;;;;0.00;0.00;;;;;22.46;34.65;100055.41;5076029;27;46930;-76
2023/04/23 08:26:18;;;;;;;;;0.00;0.00;;;;;22.56;34.23;100066.41;5075683;27;45388;-75
2023/04/23 08:28:45;;;;;;;;;2.33;0.00;;;;;22.51;34.75;100051.13;5076276;27;45424;-75
2023/04/23 08:31:10;;;;;;;;;0.25;0.25;;;;;22.56;34.75;100045.22;5076356;27;45292;-75
2023/04/23 08:33:36;;;;;;;;;0.00;0.00;;;;;22.56;34.24;100047.06;5075757;27;46170;-75
2023/04/23 08:36:01;;;;;;;;;0.00;0.00;;;;;22.56;34.75;100045.22;5075908;28;45338;-76
2023/04/23 08:38:26;;;;;;;;;0.00;0.00;;;;;22.57;34.90;100030.94;5076089;28;45630;-75
2023/04/23 08:40:55;;;;;;;;;0.00;0.00;;;;;22.55;34.27;100024.22;5075704;27;45446;-75
2023/04/23 08:43:30;;;;;;;;;0.33;0.33;;;;;22.56;34.95;100021.34;5076001;28;47179;-75
2023/04/23 08:46:03;;;;;;;;;1.00;0.00;;;;;22.56;34.88;100018.69;5075793;28;45326;-75
2023/04/23 08:48:28;;;;;;;;;0.00;0.00;;;;;22.56;34.92;100010.75;5075774;28;45410;-76
2023/04/23 08:50:56;;;;;;;;;0.67;0.67;;;;;22.52;34.62;99991.81;5075897;27;45264;-75
2023/04/23 08:53:26;;;;;;;;;0.00;0.00;;;;;22.55;34.58;99985.28;5075763;27;47284;-75
2023/04/23 08:55:54;;;;;;;;;0.00;0.00;;;;;22.52;35.09;99989.16;5075751;28;45317;-76
2023/04/23 08:58:20;;;;;;;;;0.00;0.00;;;;;22.57;34.34;99988.53;5075806;28;45353;-75
2023/04/23 09:00:47;;;;;;;;;0.00;0.00;;;;;22.58;34.51;99984.06;5075755;28;45597;-76
2023/04/23 09:03:18;;;;;;;;;0.00;0.00;;;;;22.22;34.99;99920.66;5075625;28;46357;-75
2023/04/23 09:05:43;;;;;;;;;0.00;0.00;;;;;22.46;34.49;99944.06;5075574;27;45451;-75
2023/04/23 09:08:09;;;;;;;;;0.00;0.00;;;;;22.55;34.90;99965.91;5075498;28;45664;-75
2023/04/23 09:10:36;;;;;;;;;0.00;0.00;;;;;22.44;34.94;99935.53;5075808;28;45338;-76
2023/04/23 09:13:02;;;;;;;;;1.00;0.00;;;;;22.52;34.68;99945.91;5075383;28;46560;-75
2023/04/23 09:15:27;;;;;;;;;0.00;0.00;;;;;22.60;34.32;99944.88;5075428;27;45269;-76
2023/04/23 09:17:52;;;;;;;;;0.00;0.00;;;;;22.52;34.60;99941.44;5075617;28;45429;-75
2023/04/23 09:20:17;;;;;;;;;0.67;0.67;;;;;22.60;34.22;99953.66;5075636;27;45446;-76
2023/04/23 09:22:48;;;;;;;;;1.00;0.00;;;;;22.42;34.46;99921.66;5078475;27;45360;-75
2023/04/23 09:25:19;;;;;;;;;0.00;0.00;;;;;22.58;34.76;99947.75;5079077;28;45289;-76
2023/04/23 09:27:45;;;;;;;;;0.00;0.00;;;;;22.61;34.41;99942.03;5079047;27;45502;-75
2023/04/23 09:30:12;;;;;;;;;1.00;1.00;;;;;22.61;34.22;99936.72;5078964;28;45308;-75
2023/04/23 09:32:40;;;;;;;;;0.00;0.00;;;;;22.57;34.34;99924.09;5078867;28;46003;-76
2023/04/23 09:35:07;;;;;;;;;0.00;0.00;;;;;22.62;34.32;99938.34;5078806;28;45265;-75
2023/04/23 09:37:33;;;;;;;;;0.00;0.00;;;;;22.62;34.31;99929.59;5078196;28;45461;-75
2023/04/23 09:40:00;;;;;;;;;0.33;0.33;;;;;22.62;34.99;99927.75;5078915;28;45325;-74
2023/04/23 09:42:29;;;;;;;;;0.00;0.00;;;;;22.56;35.02;99894.09;5078713;27;47111;-73
2023/04/23 09:45:10;;;;;;;;;0.00;0.00;;;;;22.62;34.31;99913.69;5078692;27;45495;-74
2023/04/23 09:47:55;;;;;;;;;0.67;0.67;;;;;22.62;34.34;99892.47;5060530;28;45331;-74
2023/04/23 09:50:31;;;;;;;;;0.00;0.00;;;;;22.61;34.35;99889.00;5078581;28;45388;-74
2023/04/23 09:52:56;;;;;;;;;0.00;0.00;;;;;22.61;34.58;99864.34;5078074;27;46214;-74
2023/04/23 09:55:30;;;;;;;;;0.00;0.00;;;;;22.61;34.99;99873.09;5078446;27;45446;-74
2023/04/23 09:57:57;;;;;;;;;2.33;0.00;;;;;22.53;34.99;99841.53;5078754;28;45322;-74
2023/04/23 10:00:24;;;;;;;;;0.00;0.00;;;;;22.61;34.57;99853.75;5078450;27;45551;-74
2023/04/23 10:02:51;;;;;;;;;0.67;0.67;;;;;22.45;34.46;99815.25;5078322;28;46185;-74
2023/04/23 10:05:21;;;;;;;;;0.00;0.00;;;;;22.52;34.55;99822.16;5078447;28;45423;-74
2023/04/23 10:07:49;;;;;;;;;0.00;0.00;;;;;22.60;34.66;99825.59;5078094;27;45396;-74
2023/04/23 10:10:16;;;;;;;;;0.00;0.00;;;;;22.50;34.60;99808.31;5078309;28;45267;-74
2023/04/23 10:12:42;;;;;;;;;1.00;1.00;;;;;22.58;34.76;99809.09;5078205;28;46163;-74
2023/04/23 10:15:08;;;;;;;;;4.67;0.00;;;;;22.55;34.79;99797.06;5078084;28;45424;-74
2023/04/23 10:17:37;;;;;;;;;1.00;1.00;;;;;22.44;34.45;99774.66;5078346;28;45294;-74
2023/04/23 10:20:05;;;;;;;;;1.00;1.00;;;;;22.54;34.54;99781.34;5078223;28;45360;-74
2023/04/23 10:22:32;;;;;;;;;0.67;0.00;;;;;22.41;34.72;99748.56;5077581;27;47782;-75
2023/04/23 10:24:59;;;;;;;;;0.00;0.00;;;;;22.55;34.68;99759.94;5078007;28;45445;-74
2023/04/23 10:27:29;;;;;;;;;0.00;0.00;;;;;22.58;34.52;99740.97;5077908;27;45411;-75
2023/04/23 10:29:57;;;;;;;;;0.00;0.00;;;;;22.50;34.62;99720.00;5078171;28;45267;-74
2023/04/23 10:32:23;;;;;;;;;0.00;0.00;;;;;22.56;35.09;99724.44;5077321;28;46246;-75
2023/04/23 10:34:49;;;;;;;;;0.67;0.67;;;;;22.59;34.58;99707.31;5077714;27;45383;-75
2023/04/23 10:37:18;;;;;;;;;0.00;0.00;;;;;22.60;35.21;99701.00;5077528;27;45319;-74
2023/04/23 10:39:45;;;;;;;;;1.00;1.00;;;;;22.58;35.06;99690.63;5077156;27;45499;-73
2023/04/23 10:42:12;;;;;;;;;1.00;1.00;;;;;22.51;35.17;99673.91;5077651;27;46130;-74
2023/04/23 10:44:40;;;;;;;;;0.75;0.75;;;;;22.55;34.57;99661.06;5077769;28;45602;-74
2023/04/23 10:47:10;;;;;;;;;1.00;1.00;;;;;22.60;34.74;99666.53;5077827;28;45325;-74
2023/04/23 10:49:38;;;;;;;;;0.33;0.00;;;;;22.35;34.68;99612.44;5075976;28;45374;-74
2023/04/23 10:52:07;;;;;;;;;2.00;0.00;;;;;22.34;34.95;99607.34;5077543;28;46501;-75
2023/04/23 10:54:33;;;;;;;;;2.00;0.00;;;;;22.59;34.66;99646.34;5077580;27;45356;-72
2023/04/23 10:57:02;;;;;;;;;0.00;0.00;;;;;22.56;34.87;99638.84;5077768;27;45441;-76
2023/04/23 10:59:32;;;;;;;;;0.00;0.00;;;;;22.55;35.17;99627.41;5077687;27;45363;-76
2023/04/23 11:02:05;;;;;;;;;1.00;1.00;;;;;22.50;35.32;99614.00;5077391;28;46039;-76
2023/04/23 11:04:32;;;;;;;;;0.00;0.00;;;;;22.59;34.89;99615.34;5077085;28;45319;-76
2023/04/23 11:07:08;;;;;;;;;0.00;0.00;;;;;22.57;35.04;99603.34;5077477;27;45308;-75
2023/04/23 11:09:33;;;;;;;;;1.00;1.00;;;;;22.60;34.87;99602.91;5077292;28;45367;-75
2023/04/23 11:12:00;;;;;;;;;1.00;1.00;;;;;22.61;35.08;99628.41;5077206;27;47348;-75
2023/04/23 11:14:55;;;;;;;;;1.00;1.00;;;;;22.60;34.75;99585.16;5077281;28;45406;-75
2023/04/23 11:17:42;;;;;;;;;1.00;1.00;;;;;22.60;35.35;99589.66;5075203;27;45334;-75
2023/04/23 11:20:12;;;;;;;;;0.00;0.00;;;;;22.61;35.35;99591.28;5062474;28;45782;-76
2023/04/23 11:22:41;;;;;;;;;0.00;0.00;;;;;22.53;35.08;99565.84;5077055;28;46238;-75